Time;durP1;ratioP1;P1;durP2;ratioP2;P2;SDS_P1;SDS_P2;PMS_P1;PMS_P2;Temp;Humidity;BMP_temperature;BMP_pressure;BME280_temperature;BME280_humidity;BME280_pressure;Samples;Min_cycle;Max_cycle;Signal;HPM_P1;HPM_P2
2023/03/11 00:00:06;;;;;;;1.83;0.30;;;0.50;99.90;;;;;;5020471;28;20132;-90
2023/03/11 00:02:31;;;;;;;2.67;0.30;;;0.50;99.90;;;;;;5042143;28;20060;-90
2023/03/11 00:04:57;;;;;;;3.75;0.30;;;0.50;99.90;;;;;;5041544;28;20272;-90
2023/03/11 00:07:22;;;;;;;2.55;0.30;;;0.50;99.90;;;;;;5042037;28;20036;-90
2023/03/11 00:09:48;;;;;;;1.45;0.20;;;0.50;99.90;;;;;;5024881;28;20128;-90
2023/03/11 00:12:14;;;;;;;1.88;0.30;;;0.50;99.90;;;;;;5014676;28;20026;-90
2023/03/11 00:14:39;;;;;;;2.00;0.20;;;0.40;99.90;;;;;;5023372;28;20060;-90
2023/03/11 00:17:05;;;;;;;3.90;0.40;;;0.40;99.90;;;;;;5025619;28;20055;-89
2023/03/11 00:19:31;;;;;;;2.42;0.20;;;0.30;99.90;;;;;;5041077;28;20033;-90
2023/03/11 00:21:56;;;;;;;2.35;0.40;;;0.30;99.90;;;;;;5050503;28;20095;-89
2023/03/11 00:24:22;;;;;;;1.73;0.47;;;0.30;99.90;;;;;;5029311;28;20041;-89
2023/03/11 00:26:48;;;;;;;2.88;0.38;;;0.20;99.90;;;;;;5024650;28;20538;-90
2023/03/11 00:29:13;;;;;;;2.88;0.30;;;0.20;99.90;;;;;;5027547;28;20024;-89
2023/03/11 00:31:40;;;;;;;2.55;0.30;;;0.20;99.90;;;;;;5012252;28;20049;-89
2023/03/11 00:34:07;;;;;;;3.75;0.30;;;0.20;99.90;;;;;;5016893;28;20032;-89
2023/03/11 00:36:33;;;;;;;5.10;0.47;;;0.20;99.90;;;;;;5012785;28;20033;-89
2023/03/11 00:39:01;;;;;;;4.45;0.40;;;0.20;99.90;;;;;;5032567;28;20622;-90
2023/03/11 00:41:27;;;;;;;7.57;0.50;;;0.10;99.90;;;;;;5015137;28;20038;-89
2023/03/11 00:43:53;;;;;;;5.22;0.50;;;0.10;99.90;;;;;;5023469;28;20152;-89
2023/03/11 00:46:19;;;;;;;2.60;0.57;;;0.10;99.90;;;;;;5024557;28;20111;-90
2023/03/11 00:48:44;;;;;;;3.95;0.40;;;0.10;99.90;;;;;;5022962;28;20045;-90
2023/03/11 00:51:13;;;;;;;7.75;0.50;;;0.00;99.90;;;;;;5029569;28;20034;-90
2023/03/11 00:53:39;;;;;;;4.20;0.40;;;0.10;99.90;;;;;;5018548;28;20030;-90
2023/03/11 00:56:07;;;;;;;2.08;0.30;;;0.00;99.90;;;;;;5047759;28;20021;-89
2023/03/11 00:58:34;;;;;;;5.03;0.45;;;0.00;99.90;;;;;;5036607;28;20039;-89
2023/03/11 01:01:05;;;;;;;6.50;0.40;;;0.00;99.90;;;;;;5053800;28;20083;-90
2023/03/11 01:03:31;;;;;;;4.13;0.40;;;0.00;99.90;;;;;;5011930;28;20067;-89
2023/03/11 01:05:57;;;;;;;6.68;0.50;;;0.00;99.90;;;;;;5020880;28;20033;-88
2023/03/11 01:08:25;;;;;;;2.88;0.30;;;-0.10;99.90;;;;;;5022884;28;20029;-90
2023/03/11 01:10:53;;;;;;;7.38;0.50;;;-0.10;99.90;;;;;;5009989;28;20482;-90
2023/03/11 01:13:18;;;;;;;3.88;0.50;;;-0.10;99.90;;;;;;5017715;28;20123;-90
2023/03/11 01:15:44;;;;;;;5.20;0.93;;;-0.10;99.90;;;;;;5022882;28;20061;-89
2023/03/11 01:18:10;;;;;;;2.70;0.30;;;-0.20;99.90;;;;;;5019307;28;20102;-89
2023/03/11 01:20:37;;;;;;;2.35;0.30;;;-0.20;99.90;;;;;;5021283;28;20029;-89
2023/03/11 01:23:04;;;;;;;3.25;0.40;;;-0.20;99.90;;;;;;5025519;28;20081;-90
2023/03/11 01:25:30;;;;;;;5.03;0.30;;;-0.20;99.90;;;;;;5020953;28;20036;-90
2023/03/11 01:27:57;;;;;;;3.13;0.50;;;-0.20;99.90;;;;;;5028838;28;20064;-89
2023/03/11 01:30:24;;;;;;;3.13;0.40;;;-0.20;99.90;;;;;;5022908;28;20363;-90
2023/03/11 01:32:51;;;;;;;6.35;0.45;;;-0.10;99.90;;;;;;5011692;28;20481;-91
2023/03/11 01:35:19;;;;;;;6.38;0.40;;;-0.10;99.90;;;;;;5026975;28;20294;-89
2023/03/11 01:37:46;;;;;;;3.13;0.40;;;-0.10;99.90;;;;;;5024055;28;20052;-88
2023/03/11 01:40:28;;;;;;;5.32;0.50;;;-0.10;99.90;;;;;;5037573;28;20022;-89
2023/03/11 01:42:55;;;;;;;4.85;0.30;;;-0.20;99.90;;;;;;5029953;28;20024;-89
2023/03/11 01:45:50;;;;;;;2.47;0.20;;;-0.30;99.90;;;;;;5015922;28;20029;-89
2023/03/11 01:48:19;;;;;;;6.68;0.40;;;-0.30;99.90;;;;;;5016272;28;20032;-90
2023/03/11 01:50:48;;;;;;;4.57;0.30;;;-0.40;99.90;;;;;;5012156;28;20025;-90
2023/03/11 01:53:16;;;;;;;3.05;0.30;;;-0.40;99.90;;;;;;5019548;28;20024;-89
2023/03/11 01:55:43;;;;;;;1.38;0.20;;;-0.40;99.90;;;;;;5039618;28;20087;-89
2023/03/11 01:58:13;;;;;;;4.30;0.30;;;-0.40;99.90;;;;;;5039315;28;20048;-89
2023/03/11 02:00:42;;;;;;;1.50;0.20;;;-0.40;99.90;;;;;;5012197;28;20033;-89
2023/03/11 02:03:20;;;;;;;3.17;0.30;;;-0.50;99.90;;;;;;5032026;28;20041;-89
2023/03/11 02:05:47;;;;;;;3.40;0.40;;;-0.50;99.90;;;;;;5041536;28;20021;-89
2023/03/11 02:08:13;;;;;;;2.60;0.30;;;-0.50;99.90;;;;;;5024988;28;20071;-89
2023/03/11 02:10:41;;;;;;;1.35;0.20;;;-0.60;99.90;;;;;;5020395;28;20025;-88
2023/03/11 02:13:08;;;;;;;1.55;0.20;;;-0.60;99.90;;;;;;5041031;28;20032;-89
2023/03/11 02:15:34;;;;;;;2.58;0.30;;;-0.60;99.90;;;;;;5017337;28;20057;-91
2023/03/11 02:18:03;;;;;;;3.05;0.20;;;-0.60;99.90;;;;;;5020071;28;20122;-90
2023/03/11 02:20:51;;;;;;;4.68;0.20;;;-0.70;99.90;;;;;;5030205;28;20093;-89
2023/03/11 02:23:20;;;;;;;0.90;0.20;;;-0.60;99.90;;;;;;5055648;28;20108;-89
2023/03/11 02:26:00;;;;;;;1.88;0.20;;;-0.60;99.90;;;;;;5017373;28;20021;-89
2023/03/11 02:28:27;;;;;;;3.22;0.20;;;-0.60;99.90;;;;;;5019015;28;20063;-90
2023/03/11 02:30:55;;;;;;;4.70;0.20;;;-0.70;99.90;;;;;;5009544;28;20022;-89
2023/03/11 02:33:25;;;;;;;2.55;0.20;;;-0.70;99.90;;;;;;5036364;28;20091;-89
2023/03/11 02:35:51;;;;;;;3.83;0.20;;;-0.70;99.90;;;;;;5014429;28;20025;-89
2023/03/11 02:38:17;;;;;;;5.30;0.30;;;-0.70;99.90;;;;;;5019824;28;20130;-89
2023/03/11 02:41:00;;;;;;;1.80;0.22;;;-0.80;99.90;;;;;;5027763;28;20060;-88
2023/03/11 02:43:53;;;;;;;2.47;0.30;;;-0.70;99.90;;;;;;5030548;28;20556;-89
2023/03/11 02:46:20;;;;;;;4.80;0.30;;;-0.70;99.90;;;;;;5025931;28;20034;-88
2023/03/11 02:48:47;;;;;;;2.53;0.20;;;-0.70;99.90;;;;;;5030842;28;20029;-89
2023/03/11 02:51:13;;;;;;;5.38;0.30;;;-0.70;99.90;;;;;;5021050;28;20024;-90
2023/03/11 02:53:46;;;;;;;5.85;0.65;;;-0.70;99.90;;;;;;5011512;28;20034;-88
2023/03/11 02:56:12;;;;;;;3.05;0.43;;;-0.70;99.90;;;;;;5029757;28;20499;-89
2023/03/11 02:58:38;;;;;;;4.90;0.40;;;-0.70;99.90;;;;;;5024919;28;20036;-89
2023/03/11 03:01:04;;;;;;;5.22;0.63;;;-0.70;99.90;;;;;;5030929;28;20053;-89
2023/03/11 03:03:29;;;;;;;2.22;0.20;;;-0.70;99.90;;;;;;5046950;28;20120;-89
2023/03/11 03:05:55;;;;;;;2.75;0.30;;;-0.70;99.90;;;;;;5039476;28;20017;-90
2023/03/11 03:08:21;;;;;;;3.70;0.30;;;-0.60;99.90;;;;;;5019330;28;20026;-88
2023/03/11 03:10:47;;;;;;;1.95;0.20;;;-0.60;99.90;;;;;;5035226;28;20033;-90
2023/03/11 03:13:12;;;;;;;4.28;0.30;;;-0.60;99.90;;;;;;5035954;28;20049;-90
2023/03/11 03:15:38;;;;;;;2.45;0.25;;;-0.60;99.90;;;;;;5019567;28;20021;-90
2023/03/11 03:18:05;;;;;;;2.78;0.30;;;-0.50;99.90;;;;;;5012816;28;20041;-90
2023/03/11 03:20:31;;;;;;;2.67;0.20;;;-0.50;99.90;;;;;;5009576;28;20069;-90
2023/03/11 03:23:00;;;;;;;2.45;0.20;;;-0.50;99.90;;;;;;5034348;28;20121;-90
2023/03/11 03:25:28;;;;;;;4.03;0.25;;;-0.50;99.90;;;;;;5013187;28;20033;-90
2023/03/11 03:27:56;;;;;;;5.00;0.40;;;-0.50;99.90;;;;;;5011574;28;20385;-89
2023/03/11 03:30:22;;;;;;;4.28;0.30;;;-0.50;99.90;;;;;;5020142;28;20029;-89
2023/03/11 03:32:48;;;;;;;2.10;0.35;;;-0.40;99.90;;;;;;5020025;28;20056;-90
2023/03/11 03:35:16;;;;;;;1.85;0.20;;;-0.50;99.90;;;;;;5011677;28;20088;-90
2023/03/11 03:38:02;;;;;;;4.72;0.28;;;-0.60;99.90;;;;;;5029154;28;20044;-90
2023/03/11 03:40:28;;;;;;;1.48;0.20;;;-0.60;99.90;;;;;;5021723;28;20033;-90
2023/03/11 03:42:56;;;;;;;6.15;0.30;;;-0.60;99.90;;;;;;5020493;28;20029;-89
2023/03/11 03:45:21;;;;;;;2.67;0.30;;;-0.60;99.90;;;;;;5022849;28;20025;-90
2023/03/11 03:47:50;;;;;;;3.53;0.77;;;-0.60;99.90;;;;;;5022100;28;20032;-89
2023/03/11 03:50:18;;;;;;;3.70;0.30;;;-0.50;99.90;;;;;;5021540;28;20029;-90
2023/03/11 03:52:47;;;;;;;2.08;0.30;;;-0.50;99.90;;;;;;5020760;28;20021;-90
2023/03/11 03:55:12;;;;;;;2.80;0.30;;;-0.50;99.90;;;;;;5037160;28;20025;-89
2023/03/11 03:57:39;;;;;;;2.47;0.30;;;-0.50;99.90;;;;;;5018228;28;20072;-89
2023/03/11 04:00:08;;;;;;;2.67;0.50;;;-0.50;99.90;;;;;;5011454;28;20057;-89
2023/03/11 04:02:39;;;;;;;4.68;0.40;;;-0.50;99.90;;;;;;5048785;28;20512;-91
2023/03/11 04:05:08;;;;;;;2.78;0.30;;;-0.50;99.90;;;;;;5007955;28;20048;-89
2023/03/11 04:07:36;;;;;;;2.25;0.30;;;-0.50;99.90;;;;;;5025001;28;20029;-89
2023/03/11 04:10:04;;;;;;;3.60;0.30;;;-0.40;99.90;;;;;;5023991;28;20045;-90
2023/03/11 04:12:31;;;;;;;2.97;0.30;;;-0.40;99.90;;;;;;5036402;28;20469;-89
2023/03/11 04:14:57;;;;;;;4.25;0.30;;;-0.40;99.90;;;;;;5015427;28;20075;-91
2023/03/11 04:17:22;;;;;;;3.28;0.30;;;-0.40;99.90;;;;;;5020271;28;20545;-90
2023/03/11 04:19:49;;;;;;;3.40;0.30;;;-0.30;99.90;;;;;;5019683;28;20064;-90
2023/03/11 04:22:15;;;;;;;3.40;0.30;;;-0.40;99.90;;;;;;5022317;28;20057;-89
2023/03/11 04:24:41;;;;;;;3.38;0.30;;;-0.40;99.90;;;;;;5020225;28;20044;-90
2023/03/11 04:27:07;;;;;;;3.28;0.30;;;-0.40;99.90;;;;;;5019960;28;20021;-90
2023/03/11 04:29:34;;;;;;;4.88;0.20;;;-0.50;99.90;;;;;;5017697;28;20032;-88
2023/03/11 04:32:00;;;;;;;3.72;0.30;;;-0.50;99.90;;;;;;5034716;28;20029;-89
2023/03/11 04:34:26;;;;;;;4.28;0.30;;;-0.50;99.90;;;;;;5039403;28;20039;-90
2023/03/11 04:36:53;;;;;;;1.33;0.30;;;-0.60;99.90;;;;;;5017111;28;20048;-88
2023/03/11 04:39:22;;;;;;;3.45;0.30;;;-0.60;99.90;;;;;;5029038;28;20033;-90
2023/03/11 04:41:48;;;;;;;5.38;0.30;;;-0.60;99.90;;;;;;5017301;28;20029;-89
2023/03/11 04:44:18;;;;;;;5.15;0.65;;;-0.60;99.90;;;;;;5011891;28;20125;-88
2023/03/11 04:46:44;;;;;;;1.42;0.35;;;-0.60;99.90;;;;;;5035306;28;20116;-89
2023/03/11 04:49:10;;;;;;;3.53;0.30;;;-0.70;99.90;;;;;;5039022;28;20076;-89
2023/03/11 04:51:36;;;;;;;2.92;0.20;;;-0.70;99.90;;;;;;5024953;28;20052;-89
2023/03/11 04:54:02;;;;;;;1.30;0.22;;;-0.80;99.90;;;;;;5018415;28;20026;-89
2023/03/11 04:56:29;;;;;;;3.00;0.25;;;-0.80;99.90;;;;;;5024226;28;20063;-89
2023/03/11 04:58:55;;;;;;;2.72;0.30;;;-0.90;99.90;;;;;;5044775;28;20032;-89
2023/03/11 05:01:23;;;;;;;3.25;0.22;;;-0.90;99.90;;;;;;5017715;28;20478;-89
2023/03/11 05:03:49;;;;;;;2.45;0.30;;;-0.80;99.90;;;;;;5034451;28;20060;-90
2023/03/11 05:06:15;;;;;;;3.17;0.20;;;-0.80;99.90;;;;;;5038574;28;20332;-89
2023/03/11 05:08:41;;;;;;;2.28;0.30;;;-0.80;99.90;;;;;;5039122;28;20238;-89
2023/03/11 05:11:07;;;;;;;3.40;0.22;;;-0.80;99.90;;;;;;5027107;28;20032;-89
2023/03/11 05:13:33;;;;;;;2.80;0.20;;;-0.70;99.90;;;;;;5031294;28;20030;-90
2023/03/11 05:15:59;;;;;;;1.60;0.20;;;-0.70;99.90;;;;;;5026054;28;20479;-89
2023/03/11 05:18:25;;;;;;;1.60;0.25;;;-0.70;99.90;;;;;;5026774;28;20025;-89
2023/03/11 05:20:52;;;;;;;3.92;0.20;;;-0.80;99.90;;;;;;5020538;28;20438;-90
2023/03/11 05:23:21;;;;;;;0.40;0.10;;;-0.80;99.90;;;;;;5028469;28;20031;-89
2023/03/11 05:25:47;;;;;;;3.25;0.20;;;-0.80;99.90;;;;;;5036201;28;20030;-89
2023/03/11 05:28:12;;;;;;;3.45;0.20;;;-0.80;99.90;;;;;;5027689;28;20036;-89
2023/03/11 05:30:44;;;;;;;1.80;0.32;;;-0.80;99.90;;;;;;5012497;28;20105;-89
2023/03/11 05:33:10;;;;;;;3.00;0.20;;;-0.80;99.90;;;;;;5025742;28;20029;-89
2023/03/11 05:35:37;;;;;;;1.45;0.10;;;-0.80;99.90;;;;;;5015732;28;20394;-89
2023/03/11 05:38:02;;;;;;;2.00;0.10;;;-0.80;99.90;;;;;;5021542;28;20038;-89
2023/03/11 05:40:29;;;;;;;2.03;0.10;;;-0.90;99.90;;;;;;5027457;28;20113;-89
2023/03/11 05:42:55;;;;;;;1.65;0.20;;;-0.90;99.90;;;;;;5022330;28;20116;-89
2023/03/11 05:45:21;;;;;;;0.77;0.10;;;-1.00;99.90;;;;;;5010876;28;20029;-89
2023/03/11 05:47:51;;;;;;;2.08;0.20;;;-1.00;99.90;;;;;;5028175;28;20028;-90
2023/03/11 05:50:18;;;;;;;0.70;0.10;;;-1.10;99.90;;;;;;5034979;28;20068;-89
2023/03/11 05:52:45;;;;;;;2.92;0.10;;;-1.10;99.90;;;;;;5012425;28;20029;-89
2023/03/11 05:55:11;;;;;;;1.50;0.10;;;-1.10;99.90;;;;;;5035126;28;20025;-87
2023/03/11 05:57:39;;;;;;;1.00;0.45;;;-1.20;99.90;;;;;;5037817;28;20041;-89
2023/03/11 06:00:10;;;;;;;1.25;0.10;;;-1.30;99.90;;;;;;5046322;28;20100;-88
2023/03/11 06:02:39;;;;;;;2.78;0.20;;;-1.30;99.90;;;;;;5042260;28;20033;-89
2023/03/11 06:05:07;;;;;;;1.42;0.10;;;-1.30;99.90;;;;;;5020477;28;20029;-89
2023/03/11 06:07:34;;;;;;;0.60;0.10;;;-1.30;99.90;;;;;;5034234;28;20029;-89
2023/03/11 06:10:02;;;;;;;0.20;0.00;;;-1.40;99.90;;;;;;5016235;28;20369;-89
2023/03/11 06:12:28;;;;;;;0.35;0.10;;;-1.50;99.90;;;;;;5020837;28;20028;-89
2023/03/11 06:15:12;;;;;;;1.60;0.10;;;-1.50;99.90;;;;;;5034855;28;20073;-89
2023/03/11 06:17:39;;;;;;;0.40;0.10;;;-1.40;99.90;;;;;;5019230;28;20030;-89
2023/03/11 06:20:06;;;;;;;0.30;0.10;;;-1.50;99.90;;;;;;5029150;28;20025;-89
2023/03/11 06:22:32;;;;;;;1.55;0.10;;;-1.60;99.90;;;;;;5012010;28;20490;-89
2023/03/11 06:24:58;;;;;;;0.57;0.00;;;-1.60;99.90;;;;;;5023572;28;20029;-89
2023/03/11 06:27:25;;;;;;;1.67;0.10;;;-1.60;99.90;;;;;;5025170;28;20386;-89
2023/03/11 06:29:53;;;;;;;0.98;0.10;;;-1.60;99.90;;;;;;5021886;28;20036;-89
2023/03/11 06:32:19;;;;;;;0.65;0.08;;;-1.60;99.90;;;;;;5036689;28;20025;-89
2023/03/11 06:34:49;;;;;;;1.20;0.10;;;-1.60;99.90;;;;;;5021155;28;20035;-89
2023/03/11 06:37:15;;;;;;;1.50;0.10;;;-1.60;99.90;;;;;;5031013;28;20021;-89
2023/03/11 06:39:40;;;;;;;0.40;0.00;;;-1.50;99.90;;;;;;5018820;28;20039;-90
2023/03/11 06:42:10;;;;;;;0.88;0.20;;;-1.60;99.90;;;;;;5047293;28;20028;-89
2023/03/11 06:44:36;;;;;;;0.80;0.00;;;-1.50;99.90;;;;;;5037477;28;20032;-89
2023/03/11 06:47:02;;;;;;;0.70;0.00;;;-1.50;99.90;;;;;;5011384;28;20438;-88
2023/03/11 06:49:28;;;;;;;1.15;0.10;;;-1.50;99.90;;;;;;5047099;28;20036;-88
2023/03/11 06:51:53;;;;;;;1.13;0.20;;;-1.50;99.90;;;;;;5021185;28;20389;-89
2023/03/11 06:54:19;;;;;;;0.68;0.10;;;-1.50;99.90;;;;;;5008699;28;20025;-89
2023/03/11 06:56:45;;;;;;;1.58;0.15;;;-1.50;99.90;;;;;;5013223;28;20049;-89
2023/03/11 06:59:14;;;;;;;0.73;0.10;;;-1.30;99.90;;;;;;5024053;28;20034;-88
2023/03/11 07:01:39;;;;;;;0.40;0.10;;;-1.40;99.90;;;;;;5035380;28;20032;-89
2023/03/11 07:04:08;;;;;;;0.88;0.10;;;-1.20;99.90;;;;;;5031420;28;20029;-89
2023/03/11 07:06:36;;;;;;;0.50;0.10;;;-1.20;99.90;;;;;;5029804;28;20025;-89
2023/03/11 07:09:08;;;;;;;0.82;0.20;;;-1.00;99.90;;;;;;5036824;28;20318;-90
2023/03/11 07:11:37;;;;;;;0.67;0.10;;;-0.90;99.90;;;;;;5025891;28;20112;-89
2023/03/11 07:14:08;;;;;;;0.40;0.10;;;-0.90;99.90;;;;;;5009481;28;20068;-90
2023/03/11 07:16:38;;;;;;;1.00;0.10;;;-0.80;99.90;;;;;;5040015;28;20032;-90
2023/03/11 07:19:09;;;;;;;0.65;0.20;;;-0.70;99.90;;;;;;5023401;28;20116;-91
2023/03/11 07:21:35;;;;;;;1.13;0.17;;;-0.70;99.90;;;;;;5022015;28;20033;-90
2023/03/11 07:24:02;;;;;;;5.00;0.22;;;-0.60;99.90;;;;;;5017335;28;20086;-90
2023/03/11 07:26:29;;;;;;;5.72;0.32;;;-0.50;99.90;;;;;;5021168;28;20041;-90
2023/03/11 07:28:55;;;;;;;1.52;0.20;;;-0.50;99.90;;;;;;5017228;28;20256;-89
2023/03/11 07:31:30;;;;;;;1.52;0.20;;;-0.40;99.90;;;;;;5009837;28;20428;-91
2023/03/11 07:34:01;;;;;;;0.65;0.20;;;-0.40;99.90;;;;;;5018119;28;20112;-89
2023/03/11 07:36:28;;;;;;;2.08;0.20;;;-0.30;99.90;;;;;;5033822;28;20033;-91
2023/03/11 07:38:59;;;;;;;3.17;0.30;;;-0.20;99.90;;;;;;5028171;28;20037;-91
2023/03/11 07:41:25;;;;;;;1.45;0.10;;;-0.10;99.90;;;;;;5011072;28;20087;-91
2023/03/11 07:43:56;;;;;;;1.23;0.20;;;0.00;99.90;;;;;;5022317;28;20033;-90
2023/03/11 07:46:23;;;;;;;1.45;0.20;;;0.00;99.90;;;;;;5008502;28;20030;-92
2023/03/11 07:48:49;;;;;;;0.98;0.10;;;0.10;99.90;;;;;;5010597;28;20072;-91
2023/03/11 07:51:16;;;;;;;2.15;0.20;;;0.20;99.90;;;;;;5021350;28;20116;-91
2023/03/11 07:53:43;;;;;;;2.90;0.20;;;0.30;99.90;;;;;;5019832;28;20171;-92
2023/03/11 07:56:10;;;;;;;2.58;0.25;;;0.40;99.90;;;;;;5011051;28;20025;-92
2023/03/11 07:58:37;;;;;;;2.75;0.20;;;0.50;99.90;;;;;;5016938;28;20037;-91
2023/03/11 08:01:18;;;;;;;2.28;0.30;;;0.60;99.90;;;;;;5022007;28;20037;-92
2023/03/11 08:03:45;;;;;;;3.30;0.30;;;0.70;99.90;;;;;;5017611;28;20033;-92
2023/03/11 08:06:21;;;;;;;2.95;0.30;;;0.80;99.90;;;;;;5016059;28;20528;-94
2023/03/11 08:08:50;;;;;;;2.17;0.30;;;0.90;99.90;;;;;;5041839;28;20032;-94
2023/03/11 08:11:27;;;;;;;2.20;0.20;;;1.00;99.90;;;;;;5025495;28;20036;-92
2023/03/11 08:13:52;;;;;;;1.55;0.20;;;1.10;99.90;;;;;;5017071;28;20397;-92
2023/03/11 08:16:29;;;;;;;1.45;0.20;;;1.30;99.90;;;;;;5022699;28;20037;-93
2023/03/11 08:18:55;;;;;;;3.60;0.20;;;1.40;99.90;;;;;;5018992;28;20433;-93
2023/03/11 08:21:24;;;;;;;0.75;0.20;;;1.50;99.90;;;;;;5019863;28;20025;-92
2023/03/11 08:23:51;;;;;;;1.27;0.30;;;1.50;99.90;;;;;;5019250;28;20088;-92
2023/03/11 08:26:19;;;;;;;2.35;0.20;;;1.70;99.90;;;;;;5018758;28;20152;-92
2023/03/11 08:28:45;;;;;;;2.17;0.20;;;1.80;99.90;;;;;;5015504;28;20028;-93
2023/03/11 08:31:19;;;;;;;3.88;0.20;;;1.80;99.90;;;;;;5017311;28;20029;-92
2023/03/11 08:33:48;;;;;;;2.15;0.20;;;1.90;99.90;;;;;;5035022;28;20093;-92
2023/03/11 08:36:14;;;;;;;4.63;0.20;;;1.90;99.90;;;;;;5012376;28;20027;-91
2023/03/11 08:38:40;;;;;;;0.85;0.20;;;1.90;99.90;;;;;;5026989;28;20049;-91
2023/03/11 08:41:06;;;;;;;2.05;0.20;;;2.10;99.90;;;;;;5014664;28;20025;-91
2023/03/11 08:43:32;;;;;;;4.60;0.25;;;2.30;99.90;;;;;;5054170;28;20075;-90
2023/03/11 08:46:05;;;;;;;2.78;0.20;;;2.30;99.90;;;;;;5023810;28;20083;-90
2023/03/11 08:48:31;;;;;;;1.63;0.17;;;2.40;99.90;;;;;;5019608;28;20070;-90
2023/03/11 08:50:57;;;;;;;2.25;0.20;;;2.40;99.90;;;;;;5020829;28;20099;-90
2023/03/11 08:53:24;;;;;;;1.02;0.20;;;2.50;99.90;;;;;;5014780;28;20076;-90
2023/03/11 08:55:51;;;;;;;1.90;0.10;;;2.40;99.90;;;;;;5024611;28;20033;-90
2023/03/11 08:58:17;;;;;;;1.98;0.30;;;2.50;99.90;;;;;;5023299;28;20056;-90
2023/03/11 09:00:43;;;;;;;3.30;0.25;;;2.60;99.90;;;;;;5038252;28;20473;-91
2023/03/11 09:03:09;;;;;;;1.00;0.20;;;2.60;99.90;;;;;;5026171;28;20048;-91
2023/03/11 09:05:35;;;;;;;3.05;0.20;;;2.80;99.90;;;;;;5015960;28;20025;-89
2023/03/11 09:08:02;;;;;;;1.45;0.30;;;2.90;99.90;;;;;;5022842;28;20037;-91
2023/03/11 09:10:28;;;;;;;0.65;0.10;;;2.90;99.90;;;;;;5030435;28;20117;-89
2023/03/11 09:12:53;;;;;;;1.42;0.13;;;3.00;99.90;;;;;;5027716;28;20648;-88
2023/03/11 09:15:19;;;;;;;1.15;0.10;;;3.10;99.90;;;;;;5027309;28;20580;-90
2023/03/11 09:17:45;;;;;;;0.47;0.10;;;3.10;99.90;;;;;;5028297;28;20060;-90
2023/03/11 09:20:14;;;;;;;1.55;0.20;;;3.10;99.90;;;;;;5030775;28;20397;-88
2023/03/11 09:22:40;;;;;;;1.42;0.40;;;3.10;99.90;;;;;;5039044;28;20116;-86
2023/03/11 09:25:06;;;;;;;2.33;0.13;;;3.10;99.90;;;;;;5039410;28;20116;-89
2023/03/11 09:27:32;;;;;;;4.55;0.20;;;3.30;99.90;;;;;;5050051;28;20370;-89
2023/03/11 09:29:57;;;;;;;2.50;0.10;;;3.30;99.90;;;;;;5038187;28;20095;-86
2023/03/11 09:32:23;;;;;;;1.27;0.10;;;3.40;99.90;;;;;;5022351;28;20029;-87
2023/03/11 09:34:49;;;;;;;1.45;0.10;;;3.50;99.90;;;;;;5022919;28;20036;-88
2023/03/11 09:37:14;;;;;;;0.65;0.10;;;3.60;99.90;;;;;;5030398;28;20040;-88
2023/03/11 09:39:40;;;;;;;1.40;0.08;;;3.60;99.90;;;;;;5031071;28;20095;-88
2023/03/11 09:42:18;;;;;;;2.88;0.20;;;3.70;99.90;;;;;;5014441;28;20029;-85
2023/03/11 09:45:18;;;;;;;0.60;0.10;;;3.80;99.90;;;;;;5032785;28;20428;-86
2023/03/11 09:47:50;;;;;;;2.63;0.10;;;3.80;99.90;;;;;;5012998;28;20091;-88
2023/03/11 09:50:21;;;;;;;1.48;0.10;;;4.00;99.90;;;;;;5030081;28;20022;-87
2023/03/11 09:53:07;;;;;;;2.10;0.10;;;3.90;99.90;;;;;;5027563;28;20106;-86
2023/03/11 09:55:36;;;;;;;0.85;0.05;;;3.90;99.90;;;;;;5023242;28;20025;-85
2023/03/11 09:58:10;;;;;;;6.70;0.33;;;3.70;99.90;;;;;;5020040;28;20108;-85
2023/03/11 10:00:36;;;;;;;0.80;0.10;;;3.70;99.90;;;;;;5046117;28;20048;-87
2023/03/11 10:03:05;;;;;;;2.05;0.00;;;3.90;99.90;;;;;;5024492;28;20029;-85
2023/03/11 10:05:32;;;;;;;3.75;0.10;;;4.00;99.90;;;;;;5020106;28;20107;-87
2023/03/11 10:08:01;;;;;;;0.75;0.00;;;4.10;99.90;;;;;;5022416;28;20521;-87
2023/03/11 10:10:32;;;;;;;0.87;0.10;;;4.00;99.90;;;;;;5034861;28;20095;-88
2023/03/11 10:13:32;;;;;;;8.90;0.15;;;4.10;99.90;;;;;;5020313;28;20068;-84
2023/03/11 10:16:49;;;;;;;1.45;0.10;;;4.20;99.90;;;;;;5035824;28;20038;-85
2023/03/11 10:19:33;;;;;;;1.77;0.17;;;4.20;99.90;;;;;;4999951;28;20049;-89
2023/03/11 10:22:26;;;;;;;1.00;0.10;;;4.30;99.90;;;;;;5010445;28;20157;-86
2023/03/11 10:25:04;;;;;;;0.57;0.10;;;4.40;99.90;;;;;;5015356;28;20092;-85
2023/03/11 10:27:53;;;;;;;3.55;0.15;;;4.50;99.90;;;;;;4978671;28;20036;-85
2023/03/11 10:30:28;;;;;;;2.90;0.20;;;4.60;99.90;;;;;;4995667;28;20041;-88
2023/03/11 10:33:00;;;;;;;1.73;0.10;;;4.60;99.90;;;;;;4990874;28;20084;-85
2023/03/11 10:35:48;;;;;;;2.88;0.10;;;4.70;99.90;;;;;;4985712;28;20046;-88
2023/03/11 10:38:20;;;;;;;0.55;0.00;;;4.60;99.90;;;;;;4991057;28;20046;-85
2023/03/11 10:40:49;;;;;;;1.38;0.13;;;4.60;99.90;;;;;;4975185;28;20030;-88
2023/03/11 10:43:20;;;;;;;1.35;0.10;;;4.40;99.90;;;;;;4993564;28;20037;-85
2023/03/11 10:45:49;;;;;;;1.42;0.10;;;4.50;99.90;;;;;;4990339;28;20026;-88
2023/03/11 10:48:17;;;;;;;0.98;0.05;;;4.60;99.90;;;;;;4995837;28;20046;-86
2023/03/11 10:51:13;;;;;;;1.48;0.10;;;4.70;99.90;;;;;;5007893;28;20538;-86
2023/03/11 10:53:59;;;;;;;3.25;0.10;;;4.90;99.90;;;;;;5002182;28;20077;-86
2023/03/11 10:56:30;;;;;;;0.40;0.00;;;5.00;99.90;;;;;;5014841;28;20140;-87
2023/03/11 10:58:56;;;;;;;1.80;0.10;;;5.10;99.90;;;;;;5005315;28;20098;-88
2023/03/11 11:01:22;;;;;;;3.72;0.20;;;5.00;99.90;;;;;;5011288;28;20026;-88
2023/03/11 11:03:51;;;;;;;1.80;0.10;;;5.00;99.90;;;;;;5023889;28;20037;-89
2023/03/11 11:06:36;;;;;;;3.42;0.10;;;5.00;99.90;;;;;;5019656;28;20048;-91
2023/03/11 11:09:20;;;;;;;2.60;0.10;;;4.80;99.90;;;;;;5027505;28;20045;-88
2023/03/11 11:12:05;;;;;;;2.55;0.10;;;5.10;99.90;;;;;;5008098;28;20034;-88
2023/03/11 11:14:50;;;;;;;0.52;0.03;;;5.30;99.90;;;;;;5023537;28;20033;-89
2023/03/11 11:17:32;;;;;;;0.68;0.00;;;5.40;99.90;;;;;;5009037;28;20021;-88
2023/03/11 11:20:11;;;;;;;0.28;0.00;;;5.50;99.90;;;;;;5017866;28;20124;-88
2023/03/11 11:22:38;;;;;;;3.08;0.10;;;5.50;99.90;;;;;;5042772;28;20026;-91
2023/03/11 11:25:24;;;;;;;1.75;0.00;;;5.30;99.90;;;;;;5022548;28;20037;-90
2023/03/11 11:27:58;;;;;;;0.35;0.03;;;5.30;99.90;;;;;;5005694;28;20037;-91
2023/03/11 11:30:28;;;;;;;0.28;0.00;;;5.50;99.90;;;;;;5014144;28;20497;-88
2023/03/11 11:32:54;;;;;;;0.70;0.00;;;5.60;99.90;;;;;;5033980;28;20029;-89
2023/03/11 11:35:22;;;;;;;0.77;0.00;;;5.50;99.90;;;;;;5002729;28;20041;-88
2023/03/11 11:37:51;;;;;;;3.08;0.20;;;5.50;99.90;;;;;;5025736;28;20102;-90
2023/03/11 11:40:29;;;;;;;1.63;0.10;;;5.40;99.90;;;;;;5005854;28;20029;-91
2023/03/11 11:43:33;;;;;;;1.75;0.55;;;5.40;99.90;;;;;;5030858;28;20041;-91
2023/03/11 11:46:12;;;;;;;1.05;0.10;;;5.80;99.90;;;;;;5011714;28;20088;-91
2023/03/11 11:49:04;;;;;;;4.13;0.10;;;6.10;99.90;;;;;;5019693;28;20085;-90
2023/03/11 11:51:46;;;;;;;0.85;0.10;;;5.80;99.90;;;;;;4995314;28;20033;-90
2023/03/11 11:54:34;;;;;;;0.90;0.10;;;6.20;99.90;;;;;;5021801;28;20036;-90
2023/03/11 11:57:07;;;;;;;0.38;0.10;;;6.30;99.90;;;;;;5009208;28;20045;-91
2023/03/11 11:59:34;;;;;;;0.85;0.00;;;6.50;99.90;;;;;;5021382;28;20041;-91
2023/03/11 12:02:15;;;;;;;2.30;0.10;;;6.80;99.90;;;;;;5011428;28;20029;-91
2023/03/11 12:05:08;;;;;;;0.88;0.10;;;6.60;99.90;;;;;;5027549;28;20392;-90
2023/03/11 12:08:22;;;;;;;1.90;0.10;;;6.50;99.90;;;;;;5010953;28;20026;-90
2023/03/11 12:11:02;;;;;;;0.70;0.10;;;6.60;99.90;;;;;;5020694;28;20037;-91
2023/03/11 12:13:47;;;;;;;2.03;0.20;;;6.40;99.90;;;;;;5011235;28;20063;-91
2023/03/11 12:16:33;;;;;;;2.47;0.10;;;6.60;99.90;;;;;;5028725;28;20041;-90
2023/03/11 12:19:09;;;;;;;2.38;0.10;;;6.50;99.90;;;;;;5033624;28;20401;-90
2023/03/11 12:21:53;;;;;;;3.70;0.10;;;6.60;99.90;;;;;;5045771;28;20025;-90
2023/03/11 12:24:37;;;;;;;2.22;0.10;;;6.50;99.90;;;;;;5008718;28;20168;-90
2023/03/11 12:27:12;;;;;;;2.50;0.10;;;6.40;99.90;;;;;;5009537;28;20033;-91
2023/03/11 12:29:43;;;;;;;0.82;0.10;;;6.40;99.90;;;;;;5011555;28;20061;-88
2023/03/11 12:32:27;;;;;;;1.40;0.00;;;6.40;99.90;;;;;;5015359;28;20345;-89
2023/03/11 12:34:52;;;;;;;0.47;0.00;;;6.80;99.90;;;;;;5032974;28;20546;-89
2023/03/11 12:37:22;;;;;;;0.65;0.08;;;7.20;99.90;;;;;;5017279;28;20026;-90
2023/03/11 12:39:47;;;;;;;1.40;0.10;;;6.90;99.90;;;;;;5015687;28;20060;-89
2023/03/11 12:42:15;;;;;;;1.52;0.10;;;6.50;99.90;;;;;;5014569;28;20366;-87
2023/03/11 12:44:41;;;;;;;2.67;0.10;;;6.90;99.90;;;;;;5009409;28;20080;-89
2023/03/11 12:47:07;;;;;;;1.15;0.05;;;7.20;99.90;;;;;;5023001;28;20120;-88
2023/03/11 12:49:42;;;;;;;1.88;0.00;;;7.10;99.90;;;;;;5013194;28;20152;-90
2023/03/11 12:52:07;;;;;;;0.40;0.00;;;7.10;99.90;;;;;;5028153;28;20547;-89
2023/03/11 12:54:36;;;;;;;2.67;0.20;;;6.90;99.90;;;;;;5033447;28;20034;-90
2023/03/11 12:57:15;;;;;;;2.00;0.10;;;6.80;99.90;;;;;;5012791;28;20643;-88
2023/03/11 12:59:53;;;;;;;2.13;0.30;;;6.70;99.90;;;;;;5028372;28;20077;-90
2023/03/11 13:02:57;;;;;;;0.82;0.10;;;6.50;99.90;;;;;;5021229;28;20018;-87
2023/03/11 13:05:38;;;;;;;1.13;0.03;;;7.00;99.90;;;;;;5009818;28;20033;-88
2023/03/11 13:08:13;;;;;;;1.15;0.10;;;7.00;99.90;;;;;;5022501;28;20026;-89